sensor_id;sensor_type;location;lat;lon;timestamp;P1;durP1;ratioP1;P2;durP2;ratioP2
71916;SDS011;59793;46.506;6.674;2023-04-07T00:01:41;2.33;;;0.90;;
71916;SDS011;59793;46.506;6.674;2023-04-07T00:04:07;2.17;;;1.00;;
71916;SDS011;59793;46.506;6.674;2023-04-07T00:06:32;2.10;;;1.10;;
71916;SDS011;59793;46.506;6.674;2023-04-07T00:08:58;2.78;;;1.23;;
71916;SDS011;59793;46.506;6.674;2023-04-07T00:11:23;1.85;;;0.80;;
71916;SDS011;59793;46.506;6.674;2023-04-07T00:13:48;3.03;;;1.40;;
71916;SDS011;59793;46.506;6.674;2023-04-07T00:16:14;5.60;;;0.93;;
71916;SDS011;59793;46.506;6.674;2023-04-07T00:18:39;1.73;;;1.15;;
71916;SDS011;59793;46.506;6.674;2023-04-07T00:21:05;5.32;;;1.10;;
71916;SDS011;59793;46.506;6.674;2023-04-07T00:23:30;2.90;;;1.10;;
71916;SDS011;59793;46.506;6.674;2023-04-07T00:25:56;1.67;;;1.00;;
71916;SDS011;59793;46.506;6.674;2023-04-07T00:28:21;2.42;;;0.90;;
71916;SDS011;59793;46.506;6.674;2023-04-07T00:30:46;1.92;;;0.98;;
71916;SDS011;59793;46.506;6.674;2023-04-07T00:33:12;3.58;;;1.70;;
71916;SDS011;59793;46.506;6.674;2023-04-07T00:35:37;2.03;;;1.20;;
71916;SDS011;59793;46.506;6.674;2023-04-07T00:38:02;2.85;;;1.05;;
71916;SDS011;59793;46.506;6.674;2023-04-07T00:40:28;1.58;;;0.90;;
71916;SDS011;59793;46.506;6.674;2023-04-07T00:42:53;2.13;;;0.82;;
71916;SDS011;59793;46.506;6.674;2023-04-07T00:45:19;1.30;;;0.75;;
71916;SDS011;59793;46.506;6.674;2023-04-07T00:47:44;3.10;;;0.90;;
71916;SDS011;59793;46.506;6.674;2023-04-07T00:50:10;3.20;;;0.87;;
71916;SDS011;59793;46.506;6.674;2023-04-07T00:52:36;1.92;;;1.10;;
71916;SDS011;59793;46.506;6.674;2023-04-07T00:55:02;2.70;;;1.08;;
71916;SDS011;59793;46.506;6.674;2023-04-07T00:57:27;2.10;;;1.17;;
71916;SDS011;59793;46.506;6.674;2023-04-07T00:59:53;2.00;;;1.00;;
71916;SDS011;59793;46.506;6.674;2023-04-07T01:04:50;2.75;;;1.40;;
71916;SDS011;59793;46.506;6.674;2023-04-07T01:07:34;1.58;;;0.90;;
71916;SDS011;59793;46.506;6.674;2023-04-07T01:10:08;2.17;;;1.33;;
71916;SDS011;59793;46.506;6.674;2023-04-07T01:12:53;4.68;;;1.42;;
71916;SDS011;59793;46.506;6.674;2023-04-07T01:17:54;2.47;;;1.10;;
71916;SDS011;59793;46.506;6.674;2023-04-07T01:20:25;2.03;;;1.15;;
71916;SDS011;59793;46.506;6.674;2023-04-07T01:22:55;2.13;;;1.10;;
71916;SDS011;59793;46.506;6.674;2023-04-07T01:31:07;1.90;;;1.10;;
71916;SDS011;59793;46.506;6.674;2023-04-07T01:33:34;2.33;;;1.08;;
71916;SDS011;59793;46.506;6.674;2023-04-07T01:36:01;6.47;;;1.08;;
71916;SDS011;59793;46.506;6.674;2023-04-07T01:38:28;1.70;;;1.13;;
71916;SDS011;59793;46.506;6.674;2023-04-07T01:43:23;4.65;;;1.20;;
71916;SDS011;59793;46.506;6.674;2023-04-07T01:45:49;3.70;;;1.83;;
71916;SDS011;59793;46.506;6.674;2023-04-07T01:48:15;1.00;;;0.85;;
71916;SDS011;59793;46.506;6.674;2023-04-07T01:50:41;2.40;;;1.30;;
71916;SDS011;59793;46.506;6.674;2023-04-07T01:53:08;3.80;;;1.38;;
71916;SDS011;59793;46.506;6.674;2023-04-07T01:55:34;1.55;;;0.88;;
71916;SDS011;59793;46.506;6.674;2023-04-07T01:58:04;2.97;;;1.40;;
71916;SDS011;59793;46.506;6.674;2023-04-07T02:00:31;3.25;;;1.30;;
71916;SDS011;59793;46.506;6.674;2023-04-07T02:05:29;2.55;;;1.23;;
71916;SDS011;59793;46.506;6.674;2023-04-07T02:07:57;1.40;;;1.07;;
71916;SDS011;59793;46.506;6.674;2023-04-07T02:10:25;4.05;;;1.42;;
71916;SDS011;59793;46.506;6.674;2023-04-07T02:12:53;1.98;;;1.00;;
71916;SDS011;59793;46.506;6.674;2023-04-07T02:15:21;2.92;;;1.20;;
71916;SDS011;59793;46.506;6.674;2023-04-07T02:17:50;2.38;;;1.15;;
71916;SDS011;59793;46.506;6.674;2023-04-07T02:20:17;1.40;;;1.00;;
71916;SDS011;59793;46.506;6.674;2023-04-07T02:22:45;1.83;;;1.00;;
71916;SDS011;59793;46.506;6.674;2023-04-07T02:25:20;2.70;;;1.00;;
71916;SDS011;59793;46.506;6.674;2023-04-07T02:27:48;2.80;;;1.13;;
71916;SDS011;59793;46.506;6.674;2023-04-07T02:30:13;2.40;;;0.93;;
71916;SDS011;59793;46.506;6.674;2023-04-07T02:32:39;4.72;;;1.00;;
71916;SDS011;59793;46.506;6.674;2023-04-07T02:35:05;5.50;;;1.60;;
71916;SDS011;59793;46.506;6.674;2023-04-07T02:37:30;2.97;;;1.98;;
71916;SDS011;59793;46.506;6.674;2023-04-07T02:39:56;1.73;;;0.90;;
71916;SDS011;59793;46.506;6.674;2023-04-07T02:42:21;2.45;;;1.10;;
71916;SDS011;59793;46.506;6.674;2023-04-07T02:44:47;2.17;;;0.80;;
71916;SDS011;59793;46.506;6.674;2023-04-07T02:47:12;2.72;;;1.23;;
71916;SDS011;59793;46.506;6.674;2023-04-07T02:49:37;5.50;;;1.60;;
71916;SDS011;59793;46.506;6.674;2023-04-07T02:52:03;3.40;;;1.90;;
71916;SDS011;59793;46.506;6.674;2023-04-07T02:54:28;5.20;;;3.47;;
71916;SDS011;59793;46.506;6.674;2023-04-07T02:56:53;5.15;;;2.97;;
71916;SDS011;59793;46.506;6.674;2023-04-07T02:59:20;6.70;;;1.63;;
71916;SDS011;59793;46.506;6.674;2023-04-07T03:01:46;5.07;;;1.80;;
71916;SDS011;59793;46.506;6.674;2023-04-07T03:04:11;5.00;;;1.40;;
71916;SDS011;59793;46.506;6.674;2023-04-07T03:06:37;2.47;;;1.30;;
71916;SDS011;59793;46.506;6.674;2023-04-07T03:09:02;2.00;;;0.98;;
71916;SDS011;59793;46.506;6.674;2023-04-07T03:11:27;3.60;;;1.10;;
71916;SDS011;59793;46.506;6.674;2023-04-07T03:13:53;1.43;;;0.97;;
71916;SDS011;59793;46.506;6.674;2023-04-07T03:16:18;1.20;;;0.80;;
71916;SDS011;59793;46.506;6.674;2023-04-07T03:18:43;1.57;;;0.90;;
71916;SDS011;59793;46.506;6.674;2023-04-07T03:21:09;2.13;;;1.00;;
71916;SDS011;59793;46.506;6.674;2023-04-07T03:23:34;5.30;;;1.40;;
71916;SDS011;59793;46.506;6.674;2023-04-07T03:26:00;2.63;;;1.15;;
71916;SDS011;59793;46.506;6.674;2023-04-07T03:28:25;2.90;;;0.82;;
71916;SDS011;59793;46.506;6.674;2023-04-07T03:30:51;2.85;;;1.30;;
71916;SDS011;59793;46.506;6.674;2023-04-07T03:33:16;3.17;;;1.10;;
71916;SDS011;59793;46.506;6.674;2023-04-07T03:35:41;1.45;;;1.05;;
71916;SDS011;59793;46.506;6.674;2023-04-07T03:38:07;4.82;;;1.52;;
71916;SDS011;59793;46.506;6.674;2023-04-07T03:40:32;3.38;;;1.33;;
71916;SDS011;59793;46.506;6.674;2023-04-07T03:42:59;4.20;;;1.42;;
71916;SDS011;59793;46.506;6.674;2023-04-07T03:45:25;2.22;;;1.27;;
71916;SDS011;59793;46.506;6.674;2023-04-07T03:47:50;3.03;;;1.20;;
71916;SDS011;59793;46.506;6.674;2023-04-07T03:50:16;4.45;;;1.50;;
71916;SDS011;59793;46.506;6.674;2023-04-07T03:52:42;4.72;;;1.30;;
71916;SDS011;59793;46.506;6.674;2023-04-07T03:55:07;2.33;;;1.13;;
71916;SDS011;59793;46.506;6.674;2023-04-07T03:57:33;2.30;;;1.33;;
71916;SDS011;59793;46.506;6.674;2023-04-07T03:59:58;2.28;;;1.20;;
71916;SDS011;59793;46.506;6.674;2023-04-07T04:02:23;1.90;;;1.30;;
71916;SDS011;59793;46.506;6.674;2023-04-07T04:04:49;2.75;;;1.08;;
71916;SDS011;59793;46.506;6.674;2023-04-07T04:07:14;3.13;;;1.40;;
71916;SDS011;59793;46.506;6.674;2023-04-07T04:09:40;2.25;;;1.35;;
71916;SDS011;59793;46.506;6.674;2023-04-07T04:12:06;2.45;;;1.25;;
71916;SDS011;59793;46.506;6.674;2023-04-07T04:14:31;2.65;;;1.60;;
71916;SDS011;59793;46.506;6.674;2023-04-07T04:16:56;2.63;;;1.20;;
71916;SDS011;59793;46.506;6.674;2023-04-07T04:19:22;4.47;;;1.23;;
71916;SDS011;59793;46.506;6.674;2023-04-07T04:21:47;3.20;;;1.48;;
71916;SDS011;59793;46.506;6.674;2023-04-07T04:24:12;2.47;;;1.50;;
71916;SDS011;59793;46.506;6.674;2023-04-07T04:26:38;2.47;;;1.20;;
71916;SDS011;59793;46.506;6.674;2023-04-07T04:29:03;2.60;;;1.33;;
71916;SDS011;59793;46.506;6.674;2023-04-07T04:31:28;2.15;;;1.20;;
71916;SDS011;59793;46.506;6.674;2023-04-07T04:33:54;2.25;;;1.52;;
71916;SDS011;59793;46.506;6.674;2023-04-07T04:36:20;3.08;;;1.83;;
71916;SDS011;59793;46.506;6.674;2023-04-07T04:38:45;5.85;;;1.38;;
71916;SDS011;59793;46.506;6.674;2023-04-07T04:41:10;2.63;;;1.52;;
71916;SDS011;59793;46.506;6.674;2023-04-07T04:43:36;4.82;;;1.65;;
71916;SDS011;59793;46.506;6.674;2023-04-07T04:46:01;2.40;;;1.60;;
71916;SDS011;59793;46.506;6.674;2023-04-07T04:48:27;6.70;;;1.70;;
71916;SDS011;59793;46.506;6.674;2023-04-07T04:50:52;2.78;;;1.60;;
71916;SDS011;59793;46.506;6.674;2023-04-07T04:53:17;3.58;;;1.80;;
71916;SDS011;59793;46.506;6.674;2023-04-07T04:55:43;8.30;;;1.52;;
71916;SDS011;59793;46.506;6.674;2023-04-07T04:58:11;4.93;;;2.20;;
71916;SDS011;59793;46.506;6.674;2023-04-07T05:00:36;4.85;;;2.42;;
71916;SDS011;59793;46.506;6.674;2023-04-07T05:03:02;4.07;;;1.80;;
71916;SDS011;59793;46.506;6.674;2023-04-07T05:05:28;5.10;;;1.70;;
71916;SDS011;59793;46.506;6.674;2023-04-07T05:07:53;3.85;;;2.10;;
71916;SDS011;59793;46.506;6.674;2023-04-07T05:10:19;5.93;;;2.03;;
71916;SDS011;59793;46.506;6.674;2023-04-07T05:12:44;6.38;;;2.85;;
71916;SDS011;59793;46.506;6.674;2023-04-07T05:15:10;3.63;;;2.08;;
71916;SDS011;59793;46.506;6.674;2023-04-07T05:17:35;3.58;;;1.85;;
71916;SDS011;59793;46.506;6.674;2023-04-07T05:20:01;2.67;;;1.67;;
71916;SDS011;59793;46.506;6.674;2023-04-07T05:22:27;5.10;;;1.70;;
71916;SDS011;59793;46.506;6.674;2023-04-07T05:24:53;2.17;;;1.55;;
71916;SDS011;59793;46.506;6.674;2023-04-07T05:27:18;3.53;;;1.83;;
71916;SDS011;59793;46.506;6.674;2023-04-07T05:29:43;2.70;;;1.48;;
71916;SDS011;59793;46.506;6.674;2023-04-07T05:32:09;3.40;;;1.52;;
71916;SDS011;59793;46.506;6.674;2023-04-07T05:34:34;3.35;;;1.77;;
71916;SDS011;59793;46.506;6.674;2023-04-07T05:37:00;2.33;;;1.65;;
71916;SDS011;59793;46.506;6.674;2023-04-07T05:39:25;2.60;;;1.63;;
71916;SDS011;59793;46.506;6.674;2023-04-07T05:41:51;4.30;;;2.00;;
71916;SDS011;59793;46.506;6.674;2023-04-07T05:44:16;5.45;;;2.63;;
71916;SDS011;59793;46.506;6.674;2023-04-07T05:46:41;4.07;;;2.22;;
71916;SDS011;59793;46.506;6.674;2023-04-07T05:49:07;4.10;;;1.80;;
71916;SDS011;59793;46.506;6.674;2023-04-07T05:51:32;3.92;;;1.90;;
71916;SDS011;59793;46.506;6.674;2023-04-07T05:54:00;3.35;;;1.58;;
71916;SDS011;59793;46.506;6.674;2023-04-07T05:56:27;3.53;;;1.63;;
71916;SDS011;59793;46.506;6.674;2023-04-07T05:58:53;4.95;;;1.70;;
71916;SDS011;59793;46.506;6.674;2023-04-07T06:01:18;2.50;;;1.90;;
71916;SDS011;59793;46.506;6.674;2023-04-07T06:03:43;2.25;;;1.55;;
71916;SDS011;59793;46.506;6.674;2023-04-07T06:06:09;3.47;;;1.70;;
71916;SDS011;59793;46.506;6.674;2023-04-07T06:08:34;3.20;;;1.70;;
71916;SDS011;59793;46.506;6.674;2023-04-07T06:11:00;4.82;;;1.63;;
71916;SDS011;59793;46.506;6.674;2023-04-07T06:13:25;3.13;;;1.80;;
71916;SDS011;59793;46.506;6.674;2023-04-07T06:15:51;2.95;;;1.55;;
71916;SDS011;59793;46.506;6.674;2023-04-07T06:18:19;2.83;;;1.60;;
71916;SDS011;59793;46.506;6.674;2023-04-07T06:20:45;2.28;;;1.70;;
71916;SDS011;59793;46.506;6.674;2023-04-07T06:23:11;4.30;;;1.45;;
71916;SDS011;59793;46.506;6.674;2023-04-07T06:25:36;3.75;;;1.70;;
71916;SDS011;59793;46.506;6.674;2023-04-07T06:28:01;3.70;;;1.75;;
71916;SDS011;59793;46.506;6.674;2023-04-07T06:30:27;3.28;;;2.08;;
71916;SDS011;59793;46.506;6.674;2023-04-07T06:32:52;4.47;;;2.03;;
71916;SDS011;59793;46.506;6.674;2023-04-07T06:35:18;3.65;;;1.90;;
71916;SDS011;59793;46.506;6.674;2023-04-07T06:37:43;6.88;;;2.33;;
71916;SDS011;59793;46.506;6.674;2023-04-07T06:40:08;4.22;;;1.83;;
71916;SDS011;59793;46.506;6.674;2023-04-07T06:42:34;2.63;;;2.05;;
71916;SDS011;59793;46.506;6.674;2023-04-07T06:44:59;4.20;;;2.30;;
71916;SDS011;59793;46.506;6.674;2023-04-07T06:47:25;4.95;;;2.13;;
71916;SDS011;59793;46.506;6.674;2023-04-07T06:49:50;6.82;;;2.13;;
71916;SDS011;59793;46.506;6.674;2023-04-07T06:52:16;3.78;;;2.00;;
71916;SDS011;59793;46.506;6.674;2023-04-07T06:54:41;4.38;;;1.65;;
71916;SDS011;59793;46.506;6.674;2023-04-07T06:57:07;4.00;;;1.90;;
71916;SDS011;59793;46.506;6.674;2023-04-07T06:59:36;2.55;;;1.77;;
71916;SDS011;59793;46.506;6.674;2023-04-07T07:02:02;3.67;;;1.80;;
71916;SDS011;59793;46.506;6.674;2023-04-07T07:04:27;4.28;;;1.73;;
71916;SDS011;59793;46.506;6.674;2023-04-07T07:06:53;4.00;;;2.00;;
71916;SDS011;59793;46.506;6.674;2023-04-07T07:09:19;5.05;;;2.00;;
71916;SDS011;59793;46.506;6.674;2023-04-07T07:11:45;2.17;;;1.38;;
71916;SDS011;59793;46.506;6.674;2023-04-07T07:14:11;3.33;;;2.00;;
71916;SDS011;59793;46.506;6.674;2023-04-07T07:16:37;2.72;;;1.50;;
71916;SDS011;59793;46.506;6.674;2023-04-07T07:19:02;2.65;;;1.35;;
71916;SDS011;59793;46.506;6.674;2023-04-07T07:21:28;4.00;;;1.90;;
71916;SDS011;59793;46.506;6.674;2023-04-07T07:23:53;3.00;;;1.60;;
71916;SDS011;59793;46.506;6.674;2023-04-07T07:26:18;5.20;;;1.77;;
71916;SDS011;59793;46.506;6.674;2023-04-07T07:28:44;2.38;;;1.65;;
71916;SDS011;59793;46.506;6.674;2023-04-07T07:31:11;5.90;;;1.88;;
71916;SDS011;59793;46.506;6.674;2023-04-07T07:33:38;4.80;;;1.77;;
71916;SDS011;59793;46.506;6.674;2023-04-07T07:36:05;2.40;;;1.40;;
71916;SDS011;59793;46.506;6.674;2023-04-07T07:38:30;2.75;;;1.83;;
71916;SDS011;59793;46.506;6.674;2023-04-07T07:40:56;4.93;;;2.03;;
71916;SDS011;59793;46.506;6.674;2023-04-07T07:43:21;2.60;;;1.80;;
71916;SDS011;59793;46.506;6.674;2023-04-07T07:45:46;2.72;;;1.70;;
71916;SDS011;59793;46.506;6.674;2023-04-07T07:48:12;2.35;;;1.23;;
71916;SDS011;59793;46.506;6.674;2023-04-07T07:50:37;3.40;;;1.75;;
71916;SDS011;59793;46.506;6.674;2023-04-07T07:53:03;2.90;;;1.65;;
71916;SDS011;59793;46.506;6.674;2023-04-07T07:55:28;5.20;;;1.83;;
71916;SDS011;59793;46.506;6.674;2023-04-07T07:57:53;2.70;;;2.07;;
71916;SDS011;59793;46.506;6.674;2023-04-07T08:00:19;2.80;;;1.55;;
71916;SDS011;59793;46.506;6.674;2023-04-07T08:02:45;3.05;;;1.63;;
71916;SDS011;59793;46.506;6.674;2023-04-07T08:05:10;6.35;;;2.00;;
71916;SDS011;59793;46.506;6.674;2023-04-07T08:07:36;6.67;;;2.40;;
71916;SDS011;59793;46.506;6.674;2023-04-07T08:10:02;7.47;;;2.42;;
71916;SDS011;59793;46.506;6.674;2023-04-07T08:12:28;4.05;;;2.03;;
71916;SDS011;59793;46.506;6.674;2023-04-07T08:14:53;3.20;;;1.83;;
71916;SDS011;59793;46.506;6.674;2023-04-07T08:17:18;4.43;;;1.83;;
71916;SDS011;59793;46.506;6.674;2023-04-07T08:19:44;1.73;;;1.13;;
71916;SDS011;59793;46.506;6.674;2023-04-07T08:22:13;4.28;;;1.80;;
71916;SDS011;59793;46.506;6.674;2023-04-07T08:24:38;3.92;;;1.83;;
71916;SDS011;59793;46.506;6.674;2023-04-07T08:27:03;3.17;;;1.35;;
71916;SDS011;59793;46.506;6.674;2023-04-07T08:29:29;2.42;;;1.42;;
71916;SDS011;59793;46.506;6.674;2023-04-07T08:31:55;2.70;;;1.47;;
71916;SDS011;59793;46.506;6.674;2023-04-07T08:34:20;3.03;;;1.70;;
71916;SDS011;59793;46.506;6.674;2023-04-07T08:36:46;7.50;;;2.10;;
71916;SDS011;59793;46.506;6.674;2023-04-07T08:39:11;3.00;;;1.50;;
71916;SDS011;59793;46.506;6.674;2023-04-07T08:41:38;2.72;;;1.63;;
71916;SDS011;59793;46.506;6.674;2023-04-07T08:44:05;6.35;;;1.98;;
71916;SDS011;59793;46.506;6.674;2023-04-07T08:46:31;4.60;;;2.78;;
71916;SDS011;59793;46.506;6.674;2023-04-07T08:51:28;4.53;;;2.30;;
71916;SDS011;59793;46.506;6.674;2023-04-07T08:54:05;3.15;;;2.15;;
71916;SDS011;59793;46.506;6.674;2023-04-07T08:56:40;5.32;;;3.08;;
71916;SDS011;59793;46.506;6.674;2023-04-07T08:59:07;4.03;;;2.38;;
71916;SDS011;59793;46.506;6.674;2023-04-07T09:01:35;4.80;;;2.40;;
71916;SDS011;59793;46.506;6.674;2023-04-07T09:04:04;2.53;;;1.70;;
71916;SDS011;59793;46.506;6.674;2023-04-07T09:06:31;4.40;;;2.58;;
71916;SDS011;59793;46.506;6.674;2023-04-07T09:09:00;3.92;;;2.65;;
71916;SDS011;59793;46.506;6.674;2023-04-07T09:11:27;4.65;;;2.25;;
71916;SDS011;59793;46.506;6.674;2023-04-07T09:13:56;3.45;;;1.95;;
71916;SDS011;59793;46.506;6.674;2023-04-07T09:16:22;4.30;;;2.30;;
71916;SDS011;59793;46.506;6.674;2023-04-07T09:18:48;3.13;;;2.30;;
71916;SDS011;59793;46.506;6.674;2023-04-07T09:21:14;4.65;;;2.47;;
71916;SDS011;59793;46.506;6.674;2023-04-07T09:23:40;6.10;;;2.75;;
71916;SDS011;59793;46.506;6.674;2023-04-07T09:26:39;7.68;;;2.15;;
71916;SDS011;59793;46.506;6.674;2023-04-07T09:28:59;3.03;;;1.60;;
71916;SDS011;59793;46.506;6.674;2023-04-07T09:31:42;5.05;;;2.03;;
71916;SDS011;59793;46.506;6.674;2023-04-07T09:36:54;3.00;;;2.10;;
71916;SDS011;59793;46.506;6.674;2023-04-07T09:39:21;4.72;;;2.50;;
71916;SDS011;59793;46.506;6.674;2023-04-07T09:41:47;4.50;;;2.22;;
71916;SDS011;59793;46.506;6.674;2023-04-07T09:44:12;3.97;;;2.40;;
71916;SDS011;59793;46.506;6.674;2023-04-07T09:49:30;2.50;;;1.70;;
71916;SDS011;59793;46.506;6.674;2023-04-07T09:51:56;4.63;;;2.45;;
71916;SDS011;59793;46.506;6.674;2023-04-07T09:54:35;5.22;;;1.90;;
71916;SDS011;59793;46.506;6.674;2023-04-07T09:57:01;3.05;;;2.03;;
71916;SDS011;59793;46.506;6.674;2023-04-07T09:59:28;2.90;;;1.98;;
71916;SDS011;59793;46.506;6.674;2023-04-07T10:01:54;4.32;;;2.10;;
71916;SDS011;59793;46.506;6.674;2023-04-07T10:04:20;3.80;;;2.42;;
71916;SDS011;59793;46.506;6.674;2023-04-07T10:06:46;2.92;;;1.80;;
71916;SDS011;59793;46.506;6.674;2023-04-07T10:09:12;12.68;;;4.78;;
71916;SDS011;59793;46.506;6.674;2023-04-07T10:11:41;12.25;;;5.18;;
71916;SDS011;59793;46.506;6.674;2023-04-07T10:14:10;8.63;;;4.30;;
71916;SDS011;59793;46.506;6.674;2023-04-07T10:16:38;4.53;;;2.40;;
71916;SDS011;59793;46.506;6.674;2023-04-07T10:19:06;4.10;;;2.63;;
71916;SDS011;59793;46.506;6.674;2023-04-07T10:21:37;2.37;;;1.77;;
71916;SDS011;59793;46.506;6.674;2023-04-07T10:24:13;5.75;;;2.00;;
71916;SDS011;59793;46.506;6.674;2023-04-07T10:27:01;5.07;;;2.50;;
71916;SDS011;59793;46.506;6.674;2023-04-07T10:29:33;4.22;;;2.70;;
71916;SDS011;59793;46.506;6.674;2023-04-07T10:32:04;5.30;;;2.83;;
71916;SDS011;59793;46.506;6.674;2023-04-07T10:37:14;4.22;;;3.03;;
71916;SDS011;59793;46.506;6.674;2023-04-07T10:39:43;23.65;;;8.65;;
71916;SDS011;59793;46.506;6.674;2023-04-07T10:45:03;4.20;;;2.10;;
71916;SDS011;59793;46.506;6.674;2023-04-07T10:47:30;4.38;;;2.50;;
71916;SDS011;59793;46.506;6.674;2023-04-07T10:52:44;7.20;;;3.08;;
71916;SDS011;59793;46.506;6.674;2023-04-07T11:03:23;5.43;;;3.28;;
71916;SDS011;59793;46.506;6.674;2023-04-07T11:05:49;7.05;;;2.35;;
71916;SDS011;59793;46.506;6.674;2023-04-07T11:08:15;11.02;;;4.43;;
71916;SDS011;59793;46.506;6.674;2023-04-07T11:10:56;3.92;;;2.35;;
71916;SDS011;59793;46.506;6.674;2023-04-07T11:13:22;6.85;;;3.15;;
71916;SDS011;59793;46.506;6.674;2023-04-07T11:15:48;3.53;;;2.05;;
71916;SDS011;59793;46.506;6.674;2023-04-07T11:18:20;11.00;;;3.10;;
71916;SDS011;59793;46.506;6.674;2023-04-07T11:20:54;7.97;;;3.10;;
71916;SDS011;59793;46.506;6.674;2023-04-07T11:23:24;3.90;;;2.42;;
71916;SDS011;59793;46.506;6.674;2023-04-07T11:25:51;3.78;;;2.20;;
71916;SDS011;59793;46.506;6.674;2023-04-07T11:30:44;4.65;;;2.15;;
71916;SDS011;59793;46.506;6.674;2023-04-07T11:33:14;4.20;;;2.40;;
71916;SDS011;59793;46.506;6.674;2023-04-07T11:35:47;3.40;;;2.30;;
71916;SDS011;59793;46.506;6.674;2023-04-07T11:38:17;4.40;;;2.40;;
71916;SDS011;59793;46.506;6.674;2023-04-07T11:40:43;3.33;;;2.25;;
71916;SDS011;59793;46.506;6.674;2023-04-07T11:43:22;5.07;;;2.40;;
71916;SDS011;59793;46.506;6.674;2023-04-07T11:48:29;5.97;;;2.60;;
71916;SDS011;59793;46.506;6.674;2023-04-07T11:50:56;3.85;;;2.17;;
71916;SDS011;59793;46.506;6.674;2023-04-07T11:53:25;5.05;;;2.05;;
71916;SDS011;59793;46.506;6.674;2023-04-07T11:56:05;3.25;;;1.98;;
71916;SDS011;59793;46.506;6.674;2023-04-07T11:58:33;2.95;;;2.35;;
71916;SDS011;59793;46.506;6.674;2023-04-07T12:01:00;4.40;;;2.95;;
71916;SDS011;59793;46.506;6.674;2023-04-07T12:03:33;4.70;;;2.33;;
71916;SDS011;59793;46.506;6.674;2023-04-07T12:06:00;4.88;;;2.35;;
71916;SDS011;59793;46.506;6.674;2023-04-07T12:08:39;7.32;;;3.08;;
71916;SDS011;59793;46.506;6.674;2023-04-07T12:11:06;3.80;;;2.53;;
71916;SDS011;59793;46.506;6.674;2023-04-07T12:13:32;3.95;;;2.20;;
71916;SDS011;59793;46.506;6.674;2023-04-07T12:15:58;4.53;;;2.40;;
71916;SDS011;59793;46.506;6.674;2023-04-07T12:18:24;5.85;;;2.63;;
71916;SDS011;59793;46.506;6.674;2023-04-07T12:20:51;6.20;;;2.75;;
71916;SDS011;59793;46.506;6.674;2023-04-07T12:23:16;5.55;;;3.03;;
71916;SDS011;59793;46.506;6.674;2023-04-07T12:25:41;3.60;;;2.23;;
71916;SDS011;59793;46.506;6.674;2023-04-07T12:28:07;3.88;;;2.17;;
71916;SDS011;59793;46.506;6.674;2023-04-07T12:30:32;3.75;;;2.15;;
71916;SDS011;59793;46.506;6.674;2023-04-07T12:32:57;7.47;;;2.50;;
71916;SDS011;59793;46.506;6.674;2023-04-07T12:35:23;4.50;;;2.20;;
71916;SDS011;59793;46.506;6.674;2023-04-07T12:37:48;4.13;;;2.38;;
71916;SDS011;59793;46.506;6.674;2023-04-07T12:40:15;3.70;;;1.90;;
71916;SDS011;59793;46.506;6.674;2023-04-07T12:42:41;3.63;;;1.95;;
71916;SDS011;59793;46.506;6.674;2023-04-07T12:45:07;4.47;;;1.90;;
71916;SDS011;59793;46.506;6.674;2023-04-07T12:47:33;3.53;;;2.08;;
71916;SDS011;59793;46.506;6.674;2023-04-07T12:49:58;5.63;;;2.33;;
71916;SDS011;59793;46.506;6.674;2023-04-07T12:52:23;3.97;;;2.53;;
71916;SDS011;59793;46.506;6.674;2023-04-07T12:54:49;2.42;;;1.80;;
71916;SDS011;59793;46.506;6.674;2023-04-07T12:57:15;3.00;;;2.10;;
71916;SDS011;59793;46.506;6.674;2023-04-07T12:59:40;5.18;;;2.13;;
71916;SDS011;59793;46.506;6.674;2023-04-07T13:02:06;3.50;;;1.93;;
71916;SDS011;59793;46.506;6.674;2023-04-07T13:04:32;9.25;;;2.00;;
71916;SDS011;59793;46.506;6.674;2023-04-07T13:06:58;2.85;;;1.75;;
71916;SDS011;59793;46.506;6.674;2023-04-07T13:09:26;2.72;;;1.90;;
71916;SDS011;59793;46.506;6.674;2023-04-07T13:11:52;4.97;;;2.97;;
71916;SDS011;59793;46.506;6.674;2023-04-07T13:14:17;4.80;;;2.50;;
71916;SDS011;59793;46.506;6.674;2023-04-07T13:16:42;3.17;;;2.40;;
71916;SDS011;59793;46.506;6.674;2023-04-07T13:19:08;4.28;;;2.58;;
71916;SDS011;59793;46.506;6.674;2023-04-07T13:21:34;5.05;;;2.33;;
71916;SDS011;59793;46.506;6.674;2023-04-07T13:24:00;4.00;;;2.47;;
71916;SDS011;59793;46.506;6.674;2023-04-07T13:26:25;2.97;;;2.30;;
71916;SDS011;59793;46.506;6.674;2023-04-07T13:28:52;3.25;;;2.25;;
71916;SDS011;59793;46.506;6.674;2023-04-07T13:31:18;4.35;;;2.33;;
71916;SDS011;59793;46.506;6.674;2023-04-07T13:33:45;3.15;;;2.67;;
71916;SDS011;59793;46.506;6.674;2023-04-07T13:36:11;3.50;;;2.63;;
71916;SDS011;59793;46.506;6.674;2023-04-07T13:38:36;4.57;;;2.47;;
71916;SDS011;59793;46.506;6.674;2023-04-07T13:41:02;4.00;;;2.20;;
71916;SDS011;59793;46.506;6.674;2023-04-07T13:43:28;4.72;;;2.55;;
71916;SDS011;59793;46.506;6.674;2023-04-07T13:45:53;3.03;;;2.03;;
71916;SDS011;59793;46.506;6.674;2023-04-07T13:48:20;3.25;;;2.53;;
71916;SDS011;59793;46.506;6.674;2023-04-07T13:50:45;3.40;;;2.50;;
71916;SDS011;59793;46.506;6.674;2023-04-07T13:53:11;2.97;;;2.10;;
71916;SDS011;59793;46.506;6.674;2023-04-07T13:55:36;2.75;;;2.22;;
71916;SDS011;59793;46.506;6.674;2023-04-07T13:58:02;2.93;;;2.10;;
71916;SDS011;59793;46.506;6.674;2023-04-07T14:00:28;5.10;;;2.77;;
71916;SDS011;59793;46.506;6.674;2023-04-07T14:02:53;9.23;;;2.67;;
71916;SDS011;59793;46.506;6.674;2023-04-07T14:05:20;4.30;;;2.77;;
71916;SDS011;59793;46.506;6.674;2023-04-07T14:07:45;3.03;;;2.40;;
71916;SDS011;59793;46.506;6.674;2023-04-07T14:10:11;3.42;;;2.50;;
71916;SDS011;59793;46.506;6.674;2023-04-07T14:12:36;3.80;;;2.55;;
71916;SDS011;59793;46.506;6.674;2023-04-07T14:15:02;4.33;;;2.27;;
71916;SDS011;59793;46.506;6.674;2023-04-07T14:17:28;5.67;;;2.53;;
71916;SDS011;59793;46.506;6.674;2023-04-07T14:19:53;4.43;;;2.27;;
71916;SDS011;59793;46.506;6.674;2023-04-07T14:22:27;3.90;;;1.88;;
71916;SDS011;59793;46.506;6.674;2023-04-07T14:24:53;1.87;;;1.33;;
71916;SDS011;59793;46.506;6.674;2023-04-07T14:27:19;4.13;;;1.87;;
71916;SDS011;59793;46.506;6.674;2023-04-07T14:29:46;2.55;;;2.08;;
71916;SDS011;59793;46.506;6.674;2023-04-07T14:32:12;3.95;;;2.30;;
71916;SDS011;59793;46.506;6.674;2023-04-07T14:34:38;3.73;;;1.43;;
71916;SDS011;59793;46.506;6.674;2023-04-07T14:37:03;3.03;;;1.47;;
71916;SDS011;59793;46.506;6.674;2023-04-07T14:39:28;4.17;;;1.60;;
71916;SDS011;59793;46.506;6.674;2023-04-07T14:41:54;4.03;;;1.33;;
71916;SDS011;59793;46.506;6.674;2023-04-07T14:44:19;3.17;;;1.00;;
71916;SDS011;59793;46.506;6.674;2023-04-07T14:46:45;2.00;;;0.80;;
71916;SDS011;59793;46.506;6.674;2023-04-07T14:49:11;3.33;;;1.30;;
71916;SDS011;59793;46.506;6.674;2023-04-07T14:51:38;2.05;;;1.13;;
71916;SDS011;59793;46.506;6.674;2023-04-07T14:54:03;8.83;;;1.20;;
71916;SDS011;59793;46.506;6.674;2023-04-07T14:56:28;5.60;;;1.10;;
71916;SDS011;59793;46.506;6.674;2023-04-07T14:58:54;3.47;;;1.07;;
71916;SDS011;59793;46.506;6.674;2023-04-07T15:01:20;1.23;;;0.70;;
71916;SDS011;59793;46.506;6.674;2023-04-07T15:03:45;5.00;;;1.33;;
71916;SDS011;59793;46.506;6.674;2023-04-07T15:06:11;2.85;;;1.05;;
71916;SDS011;59793;46.506;6.674;2023-04-07T15:08:37;2.38;;;1.30;;
71916;SDS011;59793;46.506;6.674;2023-04-07T15:11:06;1.85;;;0.80;;
71916;SDS011;59793;46.506;6.674;2023-04-07T15:13:32;2.78;;;0.90;;
71916;SDS011;59793;46.506;6.674;2023-04-07T15:16:04;1.60;;;0.70;;
71916;SDS011;59793;46.506;6.674;2023-04-07T15:18:31;2.42;;;0.85;;
71916;SDS011;59793;46.506;6.674;2023-04-07T15:20:56;2.70;;;1.40;;
71916;SDS011;59793;46.506;6.674;2023-04-07T15:23:21;1.70;;;0.90;;
71916;SDS011;59793;46.506;6.674;2023-04-07T15:25:47;2.30;;;0.93;;
71916;SDS011;59793;46.506;6.674;2023-04-07T15:28:15;2.47;;;1.00;;
71916;SDS011;59793;46.506;6.674;2023-04-07T15:30:40;2.80;;;0.87;;